Terminal Aerodrome Forecast
Issued by NWS

Home | Current Version | Previous Version | Graphics & Text | Print | Product List | Glossary On
Versions: 1 2 3 4 5 6 7 8 9 10 11 12 13 14 15 16 17 18 19 20 21 22 23 24 25 26
651
FTUS43 KTOP 251034 AAC
TAFFOE
TAF AMD
KFOE 251034Z 2511/2606 02005KT 6SM -RA VCTS BKN004CB
     FM251200 02006KT 6SM -SHRA VCTS BKN018CB
     FM251700 03006KT P6SM BKN030
     FM260000 06005KT P6SM VCTS OVC050CB=

USA.gov is the U.S. government's official web portal to all federal, state and local government web resources and services.